Time;durP1;ratioP1;P1;durP2;ratioP2;P2;SDS_P1;SDS_P2;PMS_P1;PMS_P2;Temp;Humidity;BMP_temperature;BMP_pressure;BME280_temperature;BME280_humidity;BME280_pressure;Samples;Min_cycle;Max_cycle;Signal;HPM_P1;HPM_P2
2023/01/21 00:01:57;;;;;;;41.95;23.73;;;;;;;;;;5072313;28;20410;-76
2023/01/21 00:04:23;;;;;;;39.70;23.20;;;;;;;;;;5072673;28;20174;-75
2023/01/21 00:06:49;;;;;;;47.03;24.33;;;;;;;;;;5073231;28;20513;-75
2023/01/21 00:09:15;;;;;;;41.92;22.63;;;;;;;;;;5062015;28;20320;-76
2023/01/21 00:11:41;;;;;;;33.27;20.77;;;;;;;;;;5072589;28;20860;-76
2023/01/21 00:14:07;;;;;;;40.20;21.05;;;;;;;;;;5068312;28;20384;-75
2023/01/21 00:16:33;;;;;;;35.88;20.83;;;;;;;;;;5072457;28;20723;-76
2023/01/21 00:18:59;;;;;;;41.70;23.30;;;;;;;;;;5084339;28;20183;-75
2023/01/21 00:21:25;;;;;;;36.33;22.30;;;;;;;;;;5061566;28;20282;-75
2023/01/21 00:23:51;;;;;;;35.10;21.77;;;;;;;;;;5074723;28;20411;-75
2023/01/21 00:26:17;;;;;;;42.13;23.23;;;;;;;;;;5075629;28;20438;-75
2023/01/21 00:28:43;;;;;;;43.37;25.80;;;;;;;;;;5097660;28;20457;-75
2023/01/21 00:31:10;;;;;;;39.92;24.08;;;;;;;;;;5078761;28;20427;-75
2023/01/21 00:33:36;;;;;;;44.38;24.48;;;;;;;;;;5068528;28;20283;-74
2023/01/21 00:36:07;;;;;;;54.67;25.90;;;;;;;;;;5087483;28;20691;-75
2023/01/21 00:38:33;;;;;;;37.45;23.90;;;;;;;;;;5070036;28;20632;-76
2023/01/21 00:41:03;;;;;;;48.97;24.77;;;;;;;;;;5087879;28;20192;-75
2023/01/21 00:43:29;;;;;;;47.28;25.92;;;;;;;;;;5068214;28;20228;-75
2023/01/21 00:45:56;;;;;;;44.20;21.98;;;;;;;;;;5087228;28;20644;-75
2023/01/21 00:48:22;;;;;;;40.58;24.13;;;;;;;;;;5064798;28;20205;-75
2023/01/21 00:50:52;;;;;;;43.83;21.60;;;;;;;;;;5086777;28;20174;-75
2023/01/21 00:53:18;;;;;;;42.67;24.70;;;;;;;;;;5079081;28;20297;-75
2023/01/21 00:55:44;;;;;;;48.30;27.57;;;;;;;;;;5078022;28;20288;-75
2023/01/21 00:58:10;;;;;;;40.70;23.60;;;;;;;;;;5052250;28;20426;-75
2023/01/21 01:00:36;;;;;;;47.50;25.87;;;;;;;;;;5075461;28;20444;-76
2023/01/21 01:03:02;;;;;;;42.43;26.30;;;;;;;;;;5073925;28;20406;-76
2023/01/21 01:05:28;;;;;;;44.27;24.13;;;;;;;;;;5074246;28;20443;-75
2023/01/21 01:07:54;;;;;;;40.90;21.63;;;;;;;;;;5068942;28;20460;-75
2023/01/21 01:10:20;;;;;;;37.67;22.87;;;;;;;;;;5069722;28;20399;-76
2023/01/21 01:12:46;;;;;;;38.58;23.52;;;;;;;;;;5067711;28;20465;-75
2023/01/21 01:15:12;;;;;;;40.90;23.90;;;;;;;;;;5071191;28;20194;-76
2023/01/21 01:17:38;;;;;;;42.25;26.20;;;;;;;;;;5081762;28;20466;-75
2023/01/21 01:20:07;;;;;;;55.65;27.60;;;;;;;;;;5075375;28;20190;-76
2023/01/21 01:22:39;;;;;;;42.22;25.63;;;;;;;;;;5079801;28;20194;-74
2023/01/21 01:25:05;;;;;;;51.17;24.17;;;;;;;;;;5081233;28;20189;-75
2023/01/21 01:27:34;;;;;;;46.13;26.30;;;;;;;;;;5081840;28;20221;-76
2023/01/21 01:30:00;;;;;;;44.35;25.38;;;;;;;;;;5067735;28;20290;-76
2023/01/21 01:32:26;;;;;;;43.17;25.17;;;;;;;;;;5082263;28;20274;-77
2023/01/21 01:34:52;;;;;;;41.30;23.70;;;;;;;;;;5071852;28;20512;-75
2023/01/21 01:37:17;;;;;;;46.00;25.10;;;;;;;;;;5073753;28;20416;-76
2023/01/21 01:39:46;;;;;;;54.20;24.80;;;;;;;;;;5070387;28;20459;-76
2023/01/21 01:42:14;;;;;;;43.30;26.55;;;;;;;;;;5053682;28;20950;-76
2023/01/21 01:44:55;;;;;;;47.10;26.17;;;;;;;;;;5077727;28;20624;-76
2023/01/21 01:47:23;;;;;;;46.28;25.15;;;;;;;;;;5073867;28;20214;-76
2023/01/21 01:49:49;;;;;;;46.58;22.60;;;;;;;;;;5075158;28;20182;-75
2023/01/21 01:52:15;;;;;;;41.72;23.67;;;;;;;;;;5077384;28;20221;-78
2023/01/21 01:54:43;;;;;;;40.63;23.30;;;;;;;;;;5083187;28;20712;-75
2023/01/21 01:57:10;;;;;;;51.40;25.10;;;;;;;;;;5070415;28;20266;-75
2023/01/21 01:59:36;;;;;;;43.60;22.83;;;;;;;;;;5077389;28;20190;-75
2023/01/21 02:02:07;;;;;;;48.90;25.83;;;;;;;;;;5064787;28;20224;-74
2023/01/21 02:04:36;;;;;;;46.30;23.10;;;;;;;;;;5077897;28;20203;-75
2023/01/21 02:07:02;;;;;;;46.90;27.13;;;;;;;;;;5054704;28;20205;-75
2023/01/21 02:09:29;;;;;;;38.08;20.65;;;;;;;;;;5073344;28;20172;-77
2023/01/21 02:11:59;;;;;;;36.70;21.73;;;;;;;;;;5057019;28;20305;-76
2023/01/21 02:14:25;;;;;;;46.55;26.58;;;;;;;;;;5083967;28;20324;-75
2023/01/21 02:17:13;;;;;;;45.50;24.30;;;;;;;;;;5082662;28;20384;-76
2023/01/21 02:19:53;;;;;;;56.03;25.67;;;;;;;;;;5071350;28;20280;-75
2023/01/21 02:22:26;;;;;;;47.20;24.92;;;;;;;;;;5065037;28;20285;-76
2023/01/21 02:24:55;;;;;;;49.40;25.80;;;;;;;;;;5085593;28;20189;-75
2023/01/21 02:27:24;;;;;;;39.15;23.30;;;;;;;;;;5061215;28;20204;-75
2023/01/21 02:29:51;;;;;;;45.75;24.70;;;;;;;;;;5065192;28;20237;-74
2023/01/21 02:32:35;;;;;;;40.58;23.63;;;;;;;;;;5081303;28;20202;-76
2023/01/21 02:35:21;;;;;;;33.05;19.98;;;;;;;;;;5065943;28;20223;-76
2023/01/21 02:38:01;;;;;;;38.78;21.35;;;;;;;;;;5061731;28;20198;-76
2023/01/21 02:40:37;;;;;;;45.13;24.70;;;;;;;;;;5083745;28;20299;-75
2023/01/21 02:43:10;;;;;;;46.17;24.05;;;;;;;;;;5061860;28;20269;-75
2023/01/21 02:45:36;;;;;;;54.88;26.42;;;;;;;;;;5068734;28;20657;-75
2023/01/21 02:48:16;;;;;;;42.22;23.35;;;;;;;;;;5080820;28;20240;-76
2023/01/21 02:50:44;;;;;;;45.13;25.17;;;;;;;;;;5079929;28;20212;-75
2023/01/21 02:53:21;;;;;;;43.92;24.15;;;;;;;;;;5066610;28;20424;-75
2023/01/21 02:55:47;;;;;;;55.10;26.65;;;;;;;;;;5068648;28;20684;-75
2023/01/21 02:58:15;;;;;;;44.17;23.97;;;;;;;;;;5066147;28;20195;-76
2023/01/21 03:00:41;;;;;;;43.75;24.08;;;;;;;;;;5069195;28;20433;-75
2023/01/21 03:03:25;;;;;;;36.10;21.27;;;;;;;;;;5064924;28;20207;-74
2023/01/21 03:05:51;;;;;;;42.58;23.20;;;;;;;;;;5076535;28;20462;-76
2023/01/21 03:08:17;;;;;;;48.13;25.27;;;;;;;;;;5086639;28;20166;-76
2023/01/21 03:10:52;;;;;;;40.10;24.73;;;;;;;;;;5068390;28;20781;-75
2023/01/21 03:18:57;;;;;;;46.50;24.80;;;;;;;;;;5073932;28;20247;-76
2023/01/21 03:21:25;;;;;;;53.90;21.25;;;;;;;;;;5067733;28;20257;-75
2023/01/21 03:23:52;;;;;;;41.60;21.63;;;;;;;;;;5074384;28;20198;-76
2023/01/21 03:26:20;;;;;;;49.78;25.85;;;;;;;;;;5090428;28;20193;-76
2023/01/21 03:28:49;;;;;;;54.50;26.40;;;;;;;;;;5064678;28;20670;-75
2023/01/21 03:31:17;;;;;;;45.03;26.23;;;;;;;;;;5070035;28;20514;-75
2023/01/21 03:33:44;;;;;;;50.58;26.33;;;;;;;;;;5071622;28;20734;-76
2023/01/21 03:36:14;;;;;;;50.38;25.52;;;;;;;;;;5065821;28;20572;-75
2023/01/21 03:38:44;;;;;;;52.58;26.52;;;;;;;;;;5067676;28;20208;-75
2023/01/21 03:41:16;;;;;;;46.97;22.73;;;;;;;;;;5079590;28;20178;-75
2023/01/21 03:43:42;;;;;;;60.95;24.90;;;;;;;;;;5064268;28;20282;-75
2023/01/21 03:46:10;;;;;;;49.88;25.63;;;;;;;;;;5066236;28;20179;-75
2023/01/21 03:48:41;;;;;;;61.13;29.67;;;;;;;;;;5068351;28;20272;-74
2023/01/21 03:51:09;;;;;;;54.83;27.23;;;;;;;;;;5081045;28;20187;-74
2023/01/21 03:53:35;;;;;;;50.38;26.48;;;;;;;;;;5043888;28;20543;-75
2023/01/21 03:56:01;;;;;;;59.87;28.10;;;;;;;;;;5074089;28;20184;-76
2023/01/21 03:58:28;;;;;;;54.25;27.73;;;;;;;;;;5073860;28;20436;-76
2023/01/21 04:00:54;;;;;;;54.50;27.67;;;;;;;;;;5088368;28;20182;-75
2023/01/21 04:03:20;;;;;;;52.83;25.57;;;;;;;;;;5074366;28;20187;-75
2023/01/21 04:05:46;;;;;;;44.85;23.20;;;;;;;;;;5081034;28;20401;-75
2023/01/21 04:08:12;;;;;;;60.07;27.37;;;;;;;;;;5071077;28;20559;-75
2023/01/21 04:10:38;;;;;;;46.37;24.80;;;;;;;;;;5073607;28;20405;-75
2023/01/21 04:13:06;;;;;;;41.75;25.35;;;;;;;;;;5075449;28;20816;-76
2023/01/21 04:15:32;;;;;;;59.05;30.15;;;;;;;;;;5076003;28;20668;-75
2023/01/21 04:17:58;;;;;;;50.97;26.67;;;;;;;;;;5070211;28;20190;-75
2023/01/21 04:20:24;;;;;;;53.03;24.60;;;;;;;;;;5064202;28;20444;-74
2023/01/21 04:22:50;;;;;;;43.23;24.87;;;;;;;;;;5076837;28;20827;-76
2023/01/21 04:25:16;;;;;;;46.00;25.25;;;;;;;;;;5065565;28;20442;-75
2023/01/21 04:27:42;;;;;;;43.50;24.88;;;;;;;;;;5069007;28;20309;-76
2023/01/21 04:30:09;;;;;;;46.20;25.15;;;;;;;;;;5047861;28;20603;-75
2023/01/21 04:32:36;;;;;;;32.90;19.65;;;;;;;;;;5073616;28;20277;-76
2023/01/21 04:35:02;;;;;;;37.55;19.08;;;;;;;;;;5074679;28;20193;-75
2023/01/21 04:37:28;;;;;;;48.22;23.52;;;;;;;;;;5069337;28;20402;-75
2023/01/21 04:39:54;;;;;;;45.00;25.37;;;;;;;;;;5085305;28;20585;-75
2023/01/21 04:42:20;;;;;;;44.63;21.50;;;;;;;;;;5078334;28;20428;-75
2023/01/21 04:44:46;;;;;;;49.27;25.63;;;;;;;;;;5065885;28;20455;-74
2023/01/21 04:47:12;;;;;;;39.72;22.55;;;;;;;;;;5077217;28;20565;-75
2023/01/21 04:49:38;;;;;;;41.90;24.35;;;;;;;;;;5078570;28;20269;-75
2023/01/21 04:52:05;;;;;;;47.10;24.37;;;;;;;;;;5078021;28;20194;-76
2023/01/21 04:54:31;;;;;;;48.90;26.00;;;;;;;;;;5076429;28;20969;-74
2023/01/21 04:56:58;;;;;;;49.35;27.40;;;;;;;;;;5071981;28;20298;-76
2023/01/21 04:59:23;;;;;;;48.90;24.67;;;;;;;;;;5075475;28;20197;-75
2023/01/21 05:01:50;;;;;;;47.17;23.87;;;;;;;;;;5091731;28;20678;-75
2023/01/21 05:04:16;;;;;;;56.67;26.50;;;;;;;;;;5055786;28;20440;-74
2023/01/21 05:06:41;;;;;;;45.43;21.27;;;;;;;;;;5078725;28;20221;-77
2023/01/21 05:09:07;;;;;;;49.90;24.00;;;;;;;;;;5060212;28;20440;-75
2023/01/21 05:11:33;;;;;;;54.03;26.57;;;;;;;;;;5074478;28;20488;-75
2023/01/21 05:13:59;;;;;;;59.10;26.90;;;;;;;;;;5064773;28;20559;-75
2023/01/21 05:16:25;;;;;;;48.67;25.30;;;;;;;;;;5049973;28;20419;-75
2023/01/21 05:18:51;;;;;;;49.90;25.60;;;;;;;;;;5083856;28;20827;-75
2023/01/21 05:21:17;;;;;;;52.15;26.23;;;;;;;;;;5075246;28;20175;-75
2023/01/21 05:23:43;;;;;;;60.20;25.10;;;;;;;;;;5056660;28;20350;-75
2023/01/21 05:26:09;;;;;;;48.67;23.83;;;;;;;;;;5094540;28;20404;-75
2023/01/21 05:28:35;;;;;;;63.67;28.37;;;;;;;;;;5059115;28;20547;-75
2023/01/21 05:31:02;;;;;;;59.35;28.20;;;;;;;;;;5066990;28;20782;-76
2023/01/21 05:33:34;;;;;;;67.00;27.55;;;;;;;;;;5063620;28;20202;-76
2023/01/21 05:36:01;;;;;;;60.00;28.50;;;;;;;;;;5074102;28;20176;-75
2023/01/21 05:38:27;;;;;;;65.75;31.60;;;;;;;;;;5048842;28;20605;-75
2023/01/21 05:41:00;;;;;;;54.30;29.05;;;;;;;;;;5075971;28;20796;-74
2023/01/21 05:43:26;;;;;;;59.25;29.45;;;;;;;;;;5071943;28;20223;-75
2023/01/21 05:45:52;;;;;;;68.00;30.88;;;;;;;;;;5069188;28;20192;-75
2023/01/21 05:48:19;;;;;;;51.92;28.88;;;;;;;;;;5075386;28;20758;-75
2023/01/21 05:50:45;;;;;;;54.83;29.83;;;;;;;;;;5080404;28;20393;-73
2023/01/21 05:53:11;;;;;;;54.55;28.58;;;;;;;;;;5074709;28;20188;-75
2023/01/21 05:55:37;;;;;;;47.20;24.63;;;;;;;;;;5060344;28;20178;-75
2023/01/21 05:58:03;;;;;;;43.50;23.45;;;;;;;;;;5065357;28;20726;-74
2023/01/21 06:00:29;;;;;;;47.33;24.67;;;;;;;;;;5066586;28;20194;-75
2023/01/21 06:02:55;;;;;;;52.95;26.67;;;;;;;;;;5073031;28;20174;-75
2023/01/21 06:05:21;;;;;;;52.63;28.67;;;;;;;;;;5082305;28;20664;-75
2023/01/21 06:07:47;;;;;;;55.70;26.67;;;;;;;;;;5066076;28;20460;-75
2023/01/21 06:10:13;;;;;;;57.50;28.27;;;;;;;;;;5041892;28;21162;-75
2023/01/21 06:12:39;;;;;;;49.83;25.00;;;;;;;;;;5085109;28;20458;-75
2023/01/21 06:15:05;;;;;;;46.70;26.00;;;;;;;;;;5071954;28;20823;-75
2023/01/21 06:17:31;;;;;;;44.65;25.10;;;;;;;;;;5086326;28;20189;-75
2023/01/21 06:19:57;;;;;;;53.63;27.73;;;;;;;;;;5059997;28;20316;-74
2023/01/21 06:22:23;;;;;;;44.00;23.77;;;;;;;;;;5065921;28;20190;-74
2023/01/21 06:24:49;;;;;;;44.67;23.27;;;;;;;;;;5069132;28;20570;-76
2023/01/21 06:27:15;;;;;;;49.92;26.10;;;;;;;;;;5061437;28;20822;-75
2023/01/21 06:29:42;;;;;;;55.10;28.27;;;;;;;;;;5059595;28;20204;-75
2023/01/21 06:32:08;;;;;;;53.53;27.80;;;;;;;;;;5072413;28;20430;-74
2023/01/21 06:34:34;;;;;;;53.03;29.63;;;;;;;;;;5068532;28;20724;-76
2023/01/21 06:37:00;;;;;;;57.43;26.57;;;;;;;;;;5075330;28;20433;-76
2023/01/21 06:39:26;;;;;;;53.05;26.73;;;;;;;;;;5062855;28;20441;-75
2023/01/21 06:41:52;;;;;;;53.45;23.77;;;;;;;;;;5073427;28;20225;-75
2023/01/21 06:44:18;;;;;;;40.80;25.25;;;;;;;;;;5064554;28;20187;-75
2023/01/21 06:46:44;;;;;;;51.80;25.23;;;;;;;;;;5071698;28;20205;-76
2023/01/21 06:49:10;;;;;;;56.40;26.20;;;;;;;;;;5073793;28;20427;-76
2023/01/21 06:51:36;;;;;;;51.23;27.13;;;;;;;;;;5070422;28;20424;-75
2023/01/21 06:54:02;;;;;;;53.37;26.30;;;;;;;;;;5050559;28;20805;-76
2023/01/21 06:56:28;;;;;;;48.30;26.40;;;;;;;;;;5076563;28;20537;-76
2023/01/21 06:58:54;;;;;;;46.60;24.70;;;;;;;;;;5064718;28;20996;-75
2023/01/21 07:01:20;;;;;;;49.30;24.37;;;;;;;;;;5064926;28;20393;-75
2023/01/21 07:03:46;;;;;;;45.17;23.20;;;;;;;;;;5048434;28;20810;-75
2023/01/21 07:06:12;;;;;;;52.58;26.98;;;;;;;;;;5066329;28;20847;-74
2023/01/21 07:08:38;;;;;;;61.95;28.20;;;;;;;;;;5065006;28;20191;-77
2023/01/21 07:11:04;;;;;;;53.63;24.65;;;;;;;;;;5066922;28;20606;-75
2023/01/21 07:13:30;;;;;;;46.55;28.50;;;;;;;;;;5083645;28;20187;-75
2023/01/21 07:16:00;;;;;;;53.33;25.75;;;;;;;;;;5069618;28;20183;-75
2023/01/21 07:18:26;;;;;;;52.33;27.10;;;;;;;;;;5061805;28;20530;-77
2023/01/21 07:20:52;;;;;;;59.85;28.42;;;;;;;;;;5076011;28;20179;-74
2023/01/21 07:23:18;;;;;;;52.80;26.45;;;;;;;;;;5068363;28;20206;-75
2023/01/21 07:25:44;;;;;;;46.90;24.37;;;;;;;;;;5080377;28;20251;-74
2023/01/21 07:28:10;;;;;;;40.80;23.23;;;;;;;;;;5065824;28;20478;-75
2023/01/21 07:30:36;;;;;;;53.92;28.33;;;;;;;;;;5070432;28;20458;-76
2023/01/21 07:33:05;;;;;;;46.97;25.95;;;;;;;;;;5094945;28;20190;-76
2023/01/21 07:35:31;;;;;;;57.50;26.73;;;;;;;;;;5081143;28;20645;-75
2023/01/21 07:37:57;;;;;;;47.10;25.65;;;;;;;;;;5079209;28;20874;-75
2023/01/21 07:40:23;;;;;;;55.33;28.97;;;;;;;;;;5067468;28;20194;-75
2023/01/21 07:42:50;;;;;;;52.30;26.40;;;;;;;;;;5076329;28;20838;-75
2023/01/21 07:45:16;;;;;;;50.42;26.05;;;;;;;;;;5074357;28;20191;-75
2023/01/21 07:47:42;;;;;;;49.90;26.50;;;;;;;;;;5084752;28;20301;-75
2023/01/21 07:50:08;;;;;;;43.47;25.15;;;;;;;;;;5086193;28;20601;-75
2023/01/21 07:52:35;;;;;;;40.92;23.60;;;;;;;;;;5092343;28;20181;-74
2023/01/21 07:55:01;;;;;;;47.25;24.13;;;;;;;;;;5085858;28;20218;-75
2023/01/21 07:57:30;;;;;;;46.97;25.60;;;;;;;;;;5084142;28;20237;-76
2023/01/21 07:59:56;;;;;;;46.65;25.20;;;;;;;;;;5065255;28;20194;-74
2023/01/21 08:02:22;;;;;;;39.40;22.47;;;;;;;;;;5084266;28;20251;-75
2023/01/21 08:04:48;;;;;;;43.90;25.17;;;;;;;;;;5079707;28;20430;-75
2023/01/21 08:07:14;;;;;;;42.17;20.90;;;;;;;;;;5088758;28;20216;-75
2023/01/21 08:09:40;;;;;;;38.90;22.33;;;;;;;;;;5063798;28;20963;-75
2023/01/21 08:12:06;;;;;;;44.15;24.08;;;;;;;;;;5082466;28;20467;-76
2023/01/21 08:14:33;;;;;;;41.15;22.98;;;;;;;;;;5067398;28;20197;-75
2023/01/21 08:16:59;;;;;;;43.90;24.08;;;;;;;;;;5078209;28;20634;-76
2023/01/21 08:19:25;;;;;;;34.97;23.10;;;;;;;;;;5085893;28;20255;-76
2023/01/21 08:21:52;;;;;;;46.55;26.13;;;;;;;;;;5087860;28;20201;-74
2023/01/21 08:24:19;;;;;;;44.40;23.45;;;;;;;;;;5079101;28;20614;-75
2023/01/21 08:26:45;;;;;;;43.50;25.92;;;;;;;;;;5073313;28;20391;-76
2023/01/21 08:29:11;;;;;;;39.35;21.15;;;;;;;;;;5086344;28;20190;-76
2023/01/21 08:31:37;;;;;;;44.33;23.58;;;;;;;;;;5078404;28;20208;-75
2023/01/21 08:34:03;;;;;;;50.07;26.93;;;;;;;;;;5086509;28;20178;-74
2023/01/21 08:36:29;;;;;;;48.13;28.75;;;;;;;;;;5083803;28;20435;-76
2023/01/21 08:38:57;;;;;;;49.17;26.47;;;;;;;;;;5089736;28;20181;-75
2023/01/21 08:41:24;;;;;;;46.55;26.50;;;;;;;;;;5082868;28;20447;-76
2023/01/21 08:43:51;;;;;;;52.17;26.92;;;;;;;;;;5086365;28;20585;-76
2023/01/21 08:46:17;;;;;;;47.08;25.20;;;;;;;;;;5092316;28;20190;-75
2023/01/21 08:48:43;;;;;;;52.90;26.25;;;;;;;;;;5087155;28;20186;-75
2023/01/21 08:51:09;;;;;;;44.88;21.90;;;;;;;;;;5073878;28;20217;-76
2023/01/21 08:53:35;;;;;;;41.60;24.20;;;;;;;;;;5083323;28;20253;-75
2023/01/21 08:56:01;;;;;;;40.63;23.47;;;;;;;;;;5076606;28;20683;-75
2023/01/21 08:58:28;;;;;;;44.90;25.45;;;;;;;;;;5078118;28;20471;-75
2023/01/21 09:00:55;;;;;;;41.35;23.95;;;;;;;;;;5076970;28;20193;-75
2023/01/21 09:03:21;;;;;;;45.05;22.00;;;;;;;;;;5078815;28;20182;-75
2023/01/21 09:05:47;;;;;;;47.07;26.27;;;;;;;;;;5088443;28;20566;-75
2023/01/21 09:08:13;;;;;;;52.75;25.73;;;;;;;;;;5081288;28;20962;-75
2023/01/21 09:13:24;;;;;;;41.72;22.00;;;;;;;;;;5073287;28;20251;-75
2023/01/21 09:15:50;;;;;;;39.97;23.67;;;;;;;;;;5057649;28;20208;-76
2023/01/21 09:18:16;;;;;;;37.08;20.25;;;;;;;;;;5083136;28;20876;-76
2023/01/21 09:20:42;;;;;;;45.90;22.95;;;;;;;;;;5064557;28;20194;-75
2023/01/21 09:23:24;;;;;;;44.77;22.60;;;;;;;;;;5059206;28;20447;-76
2023/01/21 09:26:10;;;;;;;40.22;22.30;;;;;;;;;;5069641;28;20952;-75
2023/01/21 09:28:37;;;;;;;37.33;20.73;;;;;;;;;;5068151;28;20205;-75
2023/01/21 09:31:05;;;;;;;36.03;20.58;;;;;;;;;;5083787;28;20301;-75
2023/01/21 09:33:31;;;;;;;29.75;19.02;;;;;;;;;;5088096;28;20270;-75
2023/01/21 09:35:59;;;;;;;32.00;19.65;;;;;;;;;;5074045;28;20690;-74
2023/01/21 09:38:26;;;;;;;30.25;19.52;;;;;;;;;;5089603;28;20200;-76
2023/01/21 09:40:52;;;;;;;36.13;21.15;;;;;;;;;;5078670;28;20242;-75
2023/01/21 09:43:24;;;;;;;39.75;22.63;;;;;;;;;;5067874;28;20182;-76
2023/01/21 09:45:53;;;;;;;33.75;18.67;;;;;;;;;;5080449;28;20595;-75
2023/01/21 09:48:27;;;;;;;33.03;20.35;;;;;;;;;;5085587;28;20296;-77
2023/01/21 09:50:53;;;;;;;32.05;20.70;;;;;;;;;;5077942;28;20185;-75
2023/01/21 09:53:27;;;;;;;37.60;21.55;;;;;;;;;;5083940;28;20182;-76
2023/01/21 09:55:57;;;;;;;33.17;20.73;;;;;;;;;;5078866;28;20181;-76
2023/01/21 09:58:30;;;;;;;39.15;22.73;;;;;;;;;;5084218;28;20174;-75
2023/01/21 10:01:14;;;;;;;36.17;21.75;;;;;;;;;;5080962;28;20696;-76
2023/01/21 10:03:40;;;;;;;39.92;21.23;;;;;;;;;;5079285;28;20190;-75
2023/01/21 10:06:16;;;;;;;31.57;19.90;;;;;;;;;;5081010;28;20701;-75
2023/01/21 10:08:57;;;;;;;40.97;23.13;;;;;;;;;;5071010;28;20420;-74
2023/01/21 10:11:32;;;;;;;33.95;20.38;;;;;;;;;;5081463;28;20222;-75
2023/01/21 10:14:13;;;;;;;38.38;21.52;;;;;;;;;;5083679;28;20174;-75
2023/01/21 10:16:58;;;;;;;39.90;22.73;;;;;;;;;;5053264;28;20182;-75
2023/01/21 10:19:28;;;;;;;35.20;19.35;;;;;;;;;;5079145;28;20888;-75
2023/01/21 10:21:59;;;;;;;39.95;21.85;;;;;;;;;;5085500;28;20174;-75
2023/01/21 10:24:30;;;;;;;36.70;21.45;;;;;;;;;;5065228;28;20198;-75
2023/01/21 10:26:59;;;;;;;29.73;18.83;;;;;;;;;;5074059;28;20237;-73
2023/01/21 10:29:26;;;;;;;42.50;21.05;;;;;;;;;;5067399;28;20483;-76
2023/01/21 10:32:02;;;;;;;35.70;20.75;;;;;;;;;;5059430;28;20247;-76
2023/01/21 10:34:30;;;;;;;40.20;21.27;;;;;;;;;;5080418;28;20306;-75
2023/01/21 10:37:14;;;;;;;44.17;24.80;;;;;;;;;;5079916;28;20407;-76
2023/01/21 10:39:46;;;;;;;34.15;22.08;;;;;;;;;;5080194;28;20213;-75
2023/01/21 10:42:12;;;;;;;30.15;19.17;;;;;;;;;;5086386;28;20401;-75
2023/01/21 10:44:53;;;;;;;43.53;23.37;;;;;;;;;;5080944;28;20199;-75
2023/01/21 10:47:26;;;;;;;41.90;22.15;;;;;;;;;;5075255;28;20568;-74
2023/01/21 10:50:03;;;;;;;39.60;23.80;;;;;;;;;;5058512;28;20680;-75
2023/01/21 10:52:47;;;;;;;35.50;22.55;;;;;;;;;;5083951;28;20398;-77
2023/01/21 10:55:13;;;;;;;40.15;23.00;;;;;;;;;;5065326;28;20177;-75
2023/01/21 10:57:39;;;;;;;43.13;24.73;;;;;;;;;;5078549;28;20213;-76
2023/01/21 11:00:15;;;;;;;38.60;23.35;;;;;;;;;;5083870;28;20408;-75
2023/01/21 11:02:41;;;;;;;38.95;20.65;;;;;;;;;;5076632;28;20272;-74
2023/01/21 11:05:11;;;;;;;35.65;20.55;;;;;;;;;;5077896;28;20182;-76
2023/01/21 11:07:41;;;;;;;42.10;23.65;;;;;;;;;;5056721;28;20207;-76
2023/01/21 11:10:08;;;;;;;39.05;23.60;;;;;;;;;;5083269;28;20198;-75
2023/01/21 11:12:37;;;;;;;41.90;24.75;;;;;;;;;;5042813;28;20238;-75
2023/01/21 11:15:23;;;;;;;32.13;18.43;;;;;;;;;;5037920;28;20361;-75
2023/01/21 11:17:55;;;;;;;44.28;22.73;;;;;;;;;;5039006;28;20413;-75
2023/01/21 11:20:27;;;;;;;29.50;18.60;;;;;;;;;;5040161;28;20603;-74
2023/01/21 11:22:53;;;;;;;33.38;19.08;;;;;;;;;;5032573;28;20413;-76
2023/01/21 11:25:25;;;;;;;31.53;20.30;;;;;;;;;;5034403;28;20241;-75
2023/01/21 11:27:51;;;;;;;36.97;22.70;;;;;;;;;;5007174;28;20470;-76
2023/01/21 11:30:32;;;;;;;33.85;18.52;;;;;;;;;;5036193;28;20217;-76
2023/01/21 11:33:12;;;;;;;39.57;22.40;;;;;;;;;;5010936;28;20274;-76
2023/01/21 11:35:38;;;;;;;35.22;19.17;;;;;;;;;;5048290;28;20464;-75
2023/01/21 11:38:04;;;;;;;32.63;19.75;;;;;;;;;;5021390;28;20192;-75
2023/01/21 11:40:31;;;;;;;29.67;19.70;;;;;;;;;;5038962;28;20198;-75
2023/01/21 11:42:57;;;;;;;37.37;21.37;;;;;;;;;;5026538;28;20464;-76
2023/01/21 11:45:26;;;;;;;32.38;18.67;;;;;;;;;;5047581;28;20456;-77
2023/01/21 11:47:53;;;;;;;40.28;19.67;;;;;;;;;;5029964;28;20206;-77
2023/01/21 11:50:21;;;;;;;30.38;18.48;;;;;;;;;;5038690;28;20247;-77
2023/01/21 11:52:48;;;;;;;36.10;20.53;;;;;;;;;;5032954;28;20208;-76
2023/01/21 11:55:18;;;;;;;32.72;20.60;;;;;;;;;;5037940;28;20412;-75
2023/01/21 11:57:48;;;;;;;34.25;18.73;;;;;;;;;;5040354;28;20694;-77
2023/01/21 12:00:40;;;;;;;31.02;17.27;;;;;;;;;;5027435;28;20271;-81
2023/01/21 12:03:07;;;;;;;47.13;20.30;;;;;;;;;;5016877;28;20759;-76
2023/01/21 12:05:34;;;;;;;35.10;19.15;;;;;;;;;;5039866;28;20195;-78
2023/01/21 12:08:00;;;;;;;33.13;19.30;;;;;;;;;;5029232;28;20214;-76
2023/01/21 12:10:37;;;;;;;34.30;19.13;;;;;;;;;;5036943;28;20190;-75
2023/01/21 12:13:04;;;;;;;31.93;19.37;;;;;;;;;;5049745;28;20318;-76
2023/01/21 12:15:48;;;;;;;32.55;18.48;;;;;;;;;;5058750;28;20430;-75
2023/01/21 12:18:19;;;;;;;31.97;19.07;;;;;;;;;;5054963;28;20198;-75
2023/01/21 12:21:06;;;;;;;31.23;17.65;;;;;;;;;;5063630;28;20981;-77
2023/01/21 12:23:44;;;;;;;37.65;20.83;;;;;;;;;;5062639;28;20251;-76
2023/01/21 12:26:34;;;;;;;42.22;22.25;;;;;;;;;;5064995;28;20263;-74
2023/01/21 12:29:00;;;;;;;42.03;16.65;;;;;;;;;;5050142;28;20210;-76
2023/01/21 12:31:31;;;;;;;44.88;19.17;;;;;;;;;;5068222;28;20602;-77
2023/01/21 12:34:09;;;;;;;34.63;20.65;;;;;;;;;;5060014;28;20254;-75
2023/01/21 12:36:45;;;;;;;32.80;18.77;;;;;;;;;;5060261;28;20214;-76
2023/01/21 12:39:24;;;;;;;30.08;17.27;;;;;;;;;;5063335;28;20474;-76
2023/01/21 12:41:57;;;;;;;32.65;17.90;;;;;;;;;;5057963;28;20754;-77
2023/01/21 12:44:26;;;;;;;34.50;18.40;;;;;;;;;;5058422;28;20223;-77
2023/01/21 12:46:54;;;;;;;40.57;18.17;;;;;;;;;;5049853;28;20327;-76
2023/01/21 12:49:24;;;;;;;29.30;16.27;;;;;;;;;;5057800;28;20545;-76
2023/01/21 12:51:53;;;;;;;26.13;17.27;;;;;;;;;;5058842;28;20982;-79
2023/01/21 12:54:25;;;;;;;33.77;19.07;;;;;;;;;;5064321;28;20396;-82
2023/01/21 12:57:12;;;;;;;38.03;19.23;;;;;;;;;;5053095;28;20448;-77
2023/01/21 12:59:38;;;;;;;32.43;19.23;;;;;;;;;;5065196;28;20200;-77
2023/01/21 13:02:23;;;;;;;30.17;17.73;;;;;;;;;;5061532;28;20437;-76
2023/01/21 13:05:13;;;;;;;29.95;16.23;;;;;;;;;;5054870;28;20465;-77
2023/01/21 13:07:45;;;;;;;29.97;17.20;;;;;;;;;;5055163;28;20204;-80
2023/01/21 13:10:26;;;;;;;27.63;17.47;;;;;;;;;;5059674;28;20421;-76
2023/01/21 13:12:57;;;;;;;28.17;17.80;;;;;;;;;;5057196;28;20991;-76
2023/01/21 13:15:27;;;;;;;26.08;15.77;;;;;;;;;;5063185;28;20465;-77
2023/01/21 13:17:56;;;;;;;24.50;15.70;;;;;;;;;;5061329;28;20775;-76
2023/01/21 13:20:23;;;;;;;28.15;15.63;;;;;;;;;;5057191;28;20209;-75
2023/01/21 13:23:06;;;;;;;22.27;13.82;;;;;;;;;;5060229;28;20198;-75
2023/01/21 13:25:48;;;;;;;29.30;17.20;;;;;;;;;;5061619;28;20186;-77
2023/01/21 13:28:24;;;;;;;28.58;17.15;;;;;;;;;;5057824;28;20210;-75
2023/01/21 13:31:01;;;;;;;29.73;17.00;;;;;;;;;;5060585;28;20177;-78
2023/01/21 13:33:47;;;;;;;27.40;17.70;;;;;;;;;;5053329;28;20194;-78
2023/01/21 13:36:25;;;;;;;30.50;17.67;;;;;;;;;;5025705;28;20209;-77
2023/01/21 13:39:00;;;;;;;29.23;17.70;;;;;;;;;;5052363;28;20502;-78
2023/01/21 13:41:41;;;;;;;28.13;17.90;;;;;;;;;;5062941;28;20606;-77
2023/01/21 13:47:28;;;;;;;23.38;15.10;;;;;;;;;;5057784;28;20359;-77
2023/01/21 13:49:57;;;;;;;24.17;15.95;;;;;;;;;;5065419;28;20405;-77
2023/01/21 13:52:26;;;;;;;23.23;15.70;;;;;;;;;;5049807;28;20203;-77
2023/01/21 13:55:15;;;;;;;28.75;18.25;;;;;;;;;;5066887;28;20174;-76
2023/01/21 13:57:47;;;;;;;26.23;16.48;;;;;;;;;;5058455;28;20217;-77
2023/01/21 14:00:13;;;;;;;27.52;16.95;;;;;;;;;;5064859;28;20250;-76
2023/01/21 14:02:47;;;;;;;30.83;17.48;;;;;;;;;;5059425;28;20190;-78
2023/01/21 14:05:26;;;;;;;29.70;16.60;;;;;;;;;;5059028;28;20188;-76
2023/01/21 14:07:57;;;;;;;25.70;14.30;;;;;;;;;;5063710;28;20508;-77
2023/01/21 14:10:27;;;;;;;32.97;16.70;;;;;;;;;;5059869;28;20432;-79
2023/01/21 14:13:06;;;;;;;24.83;15.65;;;;;;;;;;5060174;28;20725;-78
2023/01/21 14:15:42;;;;;;;28.20;17.63;;;;;;;;;;5059743;28;20190;-76
2023/01/21 14:18:16;;;;;;;24.83;15.47;;;;;;;;;;5056594;28;20539;-76
2023/01/21 14:21:12;;;;;;;23.63;15.20;;;;;;;;;;5057843;28;20461;-77
2023/01/21 14:23:44;;;;;;;30.45;16.00;;;;;;;;;;5044853;28;20204;-77
2023/01/21 14:26:28;;;;;;;20.70;12.80;;;;;;;;;;5061788;28;20248;-76
2023/01/21 14:29:10;;;;;;;22.40;14.37;;;;;;;;;;5063783;28;20450;-78
2023/01/21 14:31:40;;;;;;;23.40;15.20;;;;;;;;;;5057792;28;20443;-76
2023/01/21 14:34:09;;;;;;;21.15;14.55;;;;;;;;;;5073658;28;20413;-81
2023/01/21 14:36:35;;;;;;;17.60;12.97;;;;;;;;;;5058465;28;20190;-76
2023/01/21 14:39:20;;;;;;;15.68;12.32;;;;;;;;;;5064419;28;20440;-77
2023/01/21 14:42:03;;;;;;;17.55;12.75;;;;;;;;;;5055207;28;20199;-79